createdAt,value
2023-03-28T00:01:20.018Z,80
2023-03-28T00:04:20.089Z,80
2023-03-28T00:07:20.028Z,80
2023-03-28T00:13:20.135Z,80
2023-03-28T00:16:20.063Z,80
2023-03-28T00:19:20.030Z,80
2023-03-28T00:22:20.011Z,80
2023-03-28T00:25:20.026Z,80
2023-03-28T00:28:20.002Z,80
2023-03-28T00:31:20.052Z,80
2023-03-28T00:34:20.020Z,80
2023-03-28T00:37:20.019Z,80
2023-03-28T00:40:20.021Z,80
2023-03-28T00:43:20.015Z,80
2023-03-28T00:46:20.060Z,80
2023-03-28T00:49:20.033Z,80
2023-03-28T00:52:20.016Z,80
2023-03-28T00:55:20.017Z,80
2023-03-28T00:58:20.005Z,80
2023-03-28T01:01:20.078Z,80
2023-03-28T01:04:20.006Z,80
2023-03-28T01:07:20.002Z,80
2023-03-28T01:10:19.999Z,80
2023-03-28T01:13:19.996Z,80
2023-03-28T01:16:20.054Z,80
2023-03-28T01:19:19.994Z,80
2023-03-28T01:22:19.984Z,80
2023-03-28T01:25:19.998Z,80
2023-03-28T01:28:20.003Z,80
2023-03-28T01:31:20.008Z,80
2023-03-28T01:34:19.986Z,80
2023-03-28T01:37:19.980Z,80
2023-03-28T01:40:19.992Z,80
2023-03-28T01:43:19.981Z,80
2023-03-28T01:46:20.024Z,80
2023-03-28T01:49:19.972Z,80
2023-03-28T01:52:19.974Z,80
2023-03-28T01:55:19.970Z,80
2023-03-28T01:58:19.983Z,80
2023-03-28T02:01:19.990Z,80
2023-03-28T02:04:21.162Z,80
2023-03-28T02:07:19.976Z,80
2023-03-28T02:10:19.974Z,81
2023-03-28T02:13:19.973Z,81
2023-03-28T02:16:19.995Z,81
2023-03-28T02:19:19.983Z,81
2023-03-28T02:22:19.997Z,81
2023-03-28T02:25:19.983Z,81
2023-03-28T02:28:19.995Z,81
2023-03-28T02:31:20.009Z,81
2023-03-28T02:34:19.986Z,81
2023-03-28T02:37:19.966Z,81
2023-03-28T02:40:19.976Z,81
2023-03-28T02:43:19.965Z,81
2023-03-28T02:46:20.029Z,81
2023-03-28T02:49:19.967Z,81
2023-03-28T02:52:19.969Z,81
2023-03-28T02:55:19.978Z,81
2023-03-28T02:58:19.961Z,81
2023-03-28T03:01:20.012Z,81
2023-03-28T03:04:19.973Z,81
2023-03-28T03:07:19.967Z,81
2023-03-28T03:10:19.971Z,81
2023-03-28T03:13:19.974Z,81
2023-03-28T03:16:20.005Z,81
2023-03-28T03:19:19.973Z,81
2023-03-28T03:22:20.802Z,81
2023-03-28T03:25:20.009Z,82
2023-03-28T03:28:19.964Z,82
2023-03-28T03:31:20.050Z,82
2023-03-28T03:34:19.973Z,82
2023-03-28T03:37:19.952Z,82
2023-03-28T03:40:19.965Z,82
2023-03-28T03:43:19.988Z,82
2023-03-28T03:46:20.038Z,82
2023-03-28T03:49:19.965Z,82
2023-03-28T03:52:20.007Z,82
2023-03-28T03:55:19.968Z,82
2023-03-28T03:58:20.333Z,82
2023-03-28T04:01:19.960Z,82
2023-03-28T04:04:19.980Z,82
2023-03-28T04:07:19.962Z,82
2023-03-28T04:10:19.969Z,82
2023-03-28T04:13:19.954Z,82
2023-03-28T04:16:20.011Z,82
2023-03-28T04:19:19.961Z,82
2023-03-28T04:22:19.945Z,82
2023-03-28T04:25:19.949Z,82
2023-03-28T04:28:19.958Z,82
2023-03-28T04:31:19.982Z,82
2023-03-28T04:34:19.996Z,82
2023-03-28T04:37:19.955Z,82
2023-03-28T04:40:19.940Z,82
2023-03-28T04:43:19.957Z,82
2023-03-28T04:46:19.959Z,82
2023-03-28T04:49:19.954Z,82
2023-03-28T04:52:19.952Z,82
2023-03-28T04:55:19.948Z,82
2023-03-28T04:58:19.951Z,82
2023-03-28T05:01:20.006Z,82
2023-03-28T05:04:20.001Z,82
2023-03-28T05:07:19.940Z,82
2023-03-28T05:10:19.959Z,82
2023-03-28T05:13:19.941Z,82
2023-03-28T05:16:19.983Z,82
2023-03-28T05:19:19.934Z,82
2023-03-28T05:22:19.947Z,82
2023-03-28T05:25:19.932Z,82
2023-03-28T05:28:19.948Z,82
2023-03-28T05:31:19.970Z,83
2023-03-28T05:34:19.936Z,83
2023-03-28T05:37:19.942Z,83
2023-03-28T05:40:19.928Z,83
2023-03-28T05:43:19.937Z,83
2023-03-28T05:46:20.000Z,83
2023-03-28T05:49:19.950Z,83
2023-03-28T05:52:19.944Z,83
2023-03-28T05:55:19.925Z,83
2023-03-28T05:58:19.956Z,83
2023-03-28T06:04:19.957Z,83
2023-03-28T06:07:25.564Z,83
2023-03-28T06:10:19.935Z,83
2023-03-28T06:13:19.933Z,83
2023-03-28T06:16:19.975Z,83
2023-03-28T06:19:19.973Z,83
2023-03-28T06:22:20.018Z,83
2023-03-28T06:25:19.930Z,83
2023-03-28T06:28:19.925Z,83
2023-03-28T06:31:20.061Z,83
2023-03-28T06:34:19.950Z,83
2023-03-28T06:37:19.913Z,83
2023-03-28T06:40:19.913Z,83
2023-03-28T06:43:19.921Z,83
2023-03-28T06:46:19.944Z,83
2023-03-28T06:49:19.913Z,83
2023-03-28T06:52:19.917Z,83
2023-03-28T06:55:19.909Z,83
2023-03-28T06:58:19.914Z,83
2023-03-28T07:01:19.915Z,83
2023-03-28T07:04:19.911Z,83
2023-03-28T07:07:19.900Z,84
2023-03-28T07:10:19.905Z,84
2023-03-28T07:13:19.915Z,83
2023-03-28T07:16:19.927Z,83
2023-03-28T07:19:19.913Z,83
2023-03-28T07:22:19.897Z,83
2023-03-28T07:25:19.899Z,83
2023-03-28T07:28:19.908Z,83
2023-03-28T07:31:19.899Z,83
2023-03-28T07:34:19.937Z,83
2023-03-28T07:37:19.892Z,83
2023-03-28T07:40:19.897Z,83
2023-03-28T07:43:19.891Z,83
2023-03-28T07:46:19.909Z,83
2023-03-28T07:49:19.885Z,83
2023-03-28T07:52:19.893Z,83
2023-03-28T07:55:19.889Z,83
2023-03-28T07:58:19.902Z,82
2023-03-28T08:01:19.881Z,82
2023-03-28T08:04:19.898Z,82
2023-03-28T08:07:19.895Z,82
2023-03-28T08:10:19.880Z,82
2023-03-28T08:13:19.882Z,82
2023-03-28T08:16:19.950Z,82
2023-03-28T08:19:19.914Z,82
2023-03-28T08:22:19.885Z,82
2023-03-28T08:25:19.908Z,82
2023-03-28T08:28:19.877Z,82
2023-03-28T08:31:19.907Z,82
2023-03-28T08:34:19.902Z,82
2023-03-28T08:37:19.909Z,82
2023-03-28T08:40:19.883Z,81
2023-03-28T08:43:19.884Z,81
2023-03-28T08:46:19.908Z,81
2023-03-28T08:49:19.897Z,81
2023-03-28T08:52:19.883Z,81
2023-03-28T08:55:19.884Z,81
2023-03-28T08:58:19.885Z,81
2023-03-28T09:01:19.940Z,81
2023-03-28T09:04:19.948Z,80
2023-03-28T09:07:19.871Z,80
2023-03-28T09:10:19.884Z,80
2023-03-28T09:13:19.867Z,80
2023-03-28T09:16:19.950Z,80
2023-03-28T09:19:19.872Z,80
2023-03-28T09:22:19.871Z,80
2023-03-28T09:25:19.901Z,79
2023-03-28T09:28:19.858Z,79
2023-03-28T09:31:19.891Z,79
2023-03-28T09:34:19.862Z,78
2023-03-28T09:37:19.860Z,78
2023-03-28T09:40:19.862Z,78
2023-03-28T09:43:19.849Z,78
2023-03-28T09:46:19.916Z,78
2023-03-28T09:49:19.856Z,77
2023-03-28T09:52:19.850Z,77
2023-03-28T09:55:19.860Z,77
2023-03-28T09:58:19.852Z,77
2023-03-28T10:01:19.875Z,77
2023-03-28T10:04:19.888Z,77
2023-03-28T10:07:19.850Z,76
2023-03-28T10:10:19.847Z,76
2023-03-28T10:13:19.852Z,76
2023-03-28T10:16:19.889Z,76
2023-03-28T10:19:19.868Z,75
2023-03-28T10:25:19.848Z,75
2023-03-28T10:31:19.856Z,75
2023-03-28T10:34:19.841Z,74
2023-03-28T10:37:19.840Z,74
2023-03-28T10:40:19.923Z,74
2023-03-28T10:43:19.836Z,73
2023-03-28T10:46:19.895Z,73
2023-03-28T10:49:19.847Z,72
2023-03-28T10:52:19.833Z,72
2023-03-28T10:55:19.845Z,72
2023-03-28T10:58:19.835Z,72
2023-03-28T11:01:19.904Z,71
2023-03-28T11:04:19.833Z,71
2023-03-28T11:07:19.834Z,71
2023-03-28T11:10:19.859Z,71
2023-03-28T11:13:19.831Z,71
2023-03-28T11:16:19.874Z,71
2023-03-28T11:19:19.829Z,70
2023-03-28T11:22:19.851Z,70
2023-03-28T11:25:19.828Z,70
2023-03-28T11:28:19.832Z,70
2023-03-28T11:31:19.845Z,70
2023-03-28T11:34:19.826Z,70
2023-03-28T11:37:19.827Z,70
2023-03-28T11:40:19.829Z,69
2023-03-28T11:43:19.825Z,69
2023-03-28T11:46:19.841Z,69
2023-03-28T11:49:19.827Z,68
2023-03-28T11:52:19.817Z,68
2023-03-28T11:55:19.821Z,68
2023-03-28T11:58:19.823Z,68
2023-03-28T12:01:19.856Z,68
2023-03-28T12:04:19.839Z,68
2023-03-28T12:07:19.818Z,68
2023-03-28T12:10:19.886Z,68
2023-03-28T12:13:19.826Z,68
2023-03-28T12:16:19.862Z,67
2023-03-28T12:19:19.823Z,67
2023-03-28T12:22:19.819Z,67
2023-03-28T12:25:19.840Z,66
2023-03-28T12:28:19.814Z,65
2023-03-28T12:31:19.896Z,66
2023-03-28T12:34:19.821Z,66
2023-03-28T12:37:19.808Z,66
2023-03-28T12:40:19.820Z,66
2023-03-28T12:43:19.804Z,66
2023-03-28T12:46:19.843Z,65
2023-03-28T12:49:19.796Z,65
2023-03-28T12:52:19.795Z,64
2023-03-28T12:55:19.810Z,64
2023-03-28T12:58:19.836Z,64
2023-03-28T13:01:19.887Z,64
2023-03-28T13:04:19.941Z,65
2023-03-28T13:07:19.817Z,65
2023-03-28T13:10:19.816Z,64
2023-03-28T13:13:19.817Z,63
2023-03-28T13:16:19.865Z,64
2023-03-28T13:19:19.820Z,63
2023-03-28T13:22:19.808Z,63
2023-03-28T13:25:19.852Z,63
2023-03-28T13:28:19.813Z,63
2023-03-28T13:31:19.868Z,63
2023-03-28T13:37:22.789Z,63
2023-03-28T13:40:19.815Z,62
2023-03-28T13:43:19.829Z,62
2023-03-28T13:46:19.841Z,62
2023-03-28T13:49:19.815Z,62
2023-03-28T13:52:19.792Z,62
2023-03-28T13:55:19.807Z,62
2023-03-28T13:58:19.798Z,62
2023-03-28T14:04:19.804Z,62
2023-03-28T14:07:19.801Z,61
2023-03-28T14:10:19.792Z,61
2023-03-28T14:13:19.799Z,61
2023-03-28T14:16:19.842Z,61
2023-03-28T14:19:21.738Z,61
2023-03-28T14:22:19.812Z,61
2023-03-28T14:25:19.815Z,61
2023-03-28T14:28:19.802Z,61
2023-03-28T14:31:19.828Z,61
2023-03-28T14:34:19.830Z,61
2023-03-28T14:37:19.796Z,61
2023-03-28T14:40:19.802Z,61
2023-03-28T14:43:19.786Z,60
2023-03-28T14:46:19.809Z,60
2023-03-28T14:49:19.798Z,60
2023-03-28T14:55:19.821Z,60
2023-03-28T14:58:19.804Z,60
2023-03-28T15:01:19.849Z,60
2023-03-28T15:04:19.821Z,60
2023-03-28T15:07:19.808Z,60
2023-03-28T15:10:19.799Z,60
2023-03-28T15:13:21.456Z,60
2023-03-28T15:16:19.843Z,60
2023-03-28T15:19:19.801Z,60
2023-03-28T15:22:19.795Z,60
2023-03-28T15:25:19.782Z,60
2023-03-28T15:31:19.828Z,60
2023-03-28T15:34:19.789Z,59
2023-03-28T15:37:19.787Z,59
2023-03-28T15:40:19.788Z,59
2023-03-28T15:43:19.781Z,60
2023-03-28T15:46:19.794Z,60
2023-03-28T15:49:19.781Z,60
2023-03-28T15:52:19.775Z,60
2023-03-28T15:55:19.771Z,60
2023-03-28T15:58:19.772Z,60
2023-03-28T16:01:19.814Z,60
2023-03-28T16:04:19.813Z,59
2023-03-28T16:07:19.784Z,60
2023-03-28T16:10:19.808Z,60
2023-03-28T16:13:19.779Z,60
2023-03-28T16:16:19.783Z,59
2023-03-28T16:19:19.778Z,59
2023-03-28T16:22:19.769Z,59
2023-03-28T16:25:19.774Z,59
2023-03-28T16:28:19.979Z,59
2023-03-28T16:31:19.787Z,60
2023-03-28T16:34:19.755Z,60
2023-03-28T16:37:19.748Z,60
2023-03-28T16:40:19.754Z,60
2023-03-28T16:43:19.743Z,60
2023-03-28T16:46:19.780Z,60
2023-03-28T16:49:19.762Z,60
2023-03-28T16:52:19.763Z,60
2023-03-28T16:55:19.760Z,60
2023-03-28T16:58:19.741Z,60
2023-03-28T17:01:19.816Z,60
2023-03-28T17:04:19.763Z,60
2023-03-28T17:07:19.759Z,60
2023-03-28T17:10:19.746Z,60
2023-03-28T17:13:19.732Z,60
2023-03-28T17:16:19.847Z,60
2023-03-28T17:19:19.774Z,60
2023-03-28T17:22:19.734Z,60
2023-03-28T17:25:19.742Z,60
2023-03-28T17:28:19.734Z,60
2023-03-28T17:31:19.785Z,60
2023-03-28T17:34:19.747Z,60
2023-03-28T17:37:19.735Z,60
2023-03-28T17:40:19.759Z,60
2023-03-28T17:43:19.738Z,61
2023-03-28T17:46:19.808Z,61
2023-03-28T17:49:19.751Z,61
2023-03-28T17:52:19.736Z,61
2023-03-28T17:55:19.732Z,61
2023-03-28T17:58:19.740Z,61
2023-03-28T18:01:19.856Z,61
2023-03-28T18:04:19.729Z,61
2023-03-28T18:07:19.721Z,61
2023-03-28T18:10:19.734Z,61
2023-03-28T18:13:19.726Z,61
2023-03-28T18:16:19.754Z,61
2023-03-28T18:19:19.725Z,61
2023-03-28T18:22:19.722Z,61
2023-03-28T18:25:19.733Z,61
2023-03-28T18:28:19.716Z,61
2023-03-28T18:31:19.759Z,61
2023-03-28T18:34:19.723Z,61
2023-03-28T18:37:19.736Z,61
2023-03-28T18:40:19.732Z,61
2023-03-28T18:43:19.730Z,61
2023-03-28T18:46:19.764Z,61
2023-03-28T18:49:19.740Z,61
2023-03-28T18:52:19.727Z,61
2023-03-28T18:55:19.735Z,61
2023-03-28T18:58:19.734Z,61
2023-03-28T19:01:19.751Z,61
2023-03-28T19:04:19.893Z,61
2023-03-28T19:07:19.712Z,61
2023-03-28T19:10:19.720Z,61
2023-03-28T19:13:19.924Z,61
2023-03-28T19:16:19.962Z,61
2023-03-28T19:19:19.783Z,61
2023-03-28T19:22:19.723Z,61
2023-03-28T19:25:19.722Z,61
2023-03-28T19:28:19.717Z,61
2023-03-28T19:31:19.767Z,61
2023-03-28T19:34:19.720Z,61
2023-03-28T19:37:19.739Z,61
2023-03-28T19:40:19.715Z,61
2023-03-28T19:43:19.716Z,61
2023-03-28T19:46:19.776Z,60
2023-03-28T19:49:19.729Z,60
2023-03-28T19:52:19.713Z,60
2023-03-28T19:55:19.729Z,60
2023-03-28T19:58:19.719Z,60
2023-03-28T20:01:19.749Z,60
2023-03-28T20:04:19.729Z,60
2023-03-28T20:07:19.727Z,60
2023-03-28T20:10:19.707Z,60
2023-03-28T20:13:19.733Z,61
2023-03-28T20:16:19.739Z,61
2023-03-28T20:19:19.725Z,61
2023-03-28T20:22:19.714Z,61
2023-03-28T20:25:19.706Z,61
2023-03-28T20:28:19.709Z,61
2023-03-28T20:31:19.771Z,61
2023-03-28T20:34:19.716Z,61
2023-03-28T20:40:19.707Z,61
2023-03-28T20:43:19.706Z,61
2023-03-28T20:46:19.922Z,61
2023-03-28T20:49:19.704Z,61
2023-03-28T20:52:19.694Z,61
2023-03-28T20:55:19.692Z,61
2023-03-28T20:58:19.699Z,61
2023-03-28T21:01:19.755Z,62
2023-03-28T21:04:19.813Z,62
2023-03-28T21:07:19.691Z,62
2023-03-28T21:10:19.690Z,62
2023-03-28T21:13:21.780Z,62
2023-03-28T21:16:19.721Z,62
2023-03-28T21:19:19.698Z,62
2023-03-28T21:22:19.692Z,63
2023-03-28T21:25:19.699Z,63
2023-03-28T21:28:19.695Z,63
2023-03-28T21:31:19.757Z,63
2023-03-28T21:34:19.697Z,63
2023-03-28T21:37:19.681Z,63
2023-03-28T21:40:19.695Z,63
2023-03-28T21:43:19.684Z,63
2023-03-28T21:46:19.745Z,63
2023-03-28T21:49:19.725Z,64
2023-03-28T21:52:19.686Z,64
2023-03-28T21:55:19.696Z,64
2023-03-28T21:58:19.690Z,64
2023-03-28T22:01:19.717Z,64
2023-03-28T22:04:19.681Z,64
2023-03-28T22:07:19.684Z,64
2023-03-28T22:10:19.677Z,64
2023-03-28T22:13:19.671Z,64
2023-03-28T22:16:19.730Z,64
2023-03-28T22:19:19.696Z,64
2023-03-28T22:22:19.675Z,64
2023-03-28T22:25:19.695Z,65
2023-03-28T22:28:19.678Z,65
2023-03-28T22:31:19.723Z,65
2023-03-28T22:34:19.682Z,65
2023-03-28T22:40:19.679Z,66
2023-03-28T22:43:19.673Z,66
2023-03-28T22:46:19.706Z,66
2023-03-28T22:49:19.666Z,66
2023-03-28T22:55:19.666Z,66
2023-03-28T22:58:19.663Z,66
2023-03-28T23:01:19.692Z,67
2023-03-28T23:04:19.677Z,67
2023-03-28T23:07:19.675Z,67
2023-03-28T23:10:19.673Z,67
2023-03-28T23:13:19.664Z,67
2023-03-28T23:16:19.728Z,67
2023-03-28T23:19:19.680Z,67
2023-03-28T23:22:19.656Z,67
2023-03-28T23:25:19.682Z,67
2023-03-28T23:28:20.359Z,68
2023-03-28T23:31:19.702Z,68
2023-03-28T23:34:19.664Z,68
2023-03-28T23:37:19.655Z,68
2023-03-28T23:40:19.670Z,68
2023-03-28T23:43:19.657Z,68
2023-03-28T23:46:19.702Z,68
2023-03-28T23:49:19.662Z,68
2023-03-28T23:52:19.641Z,68
2023-03-28T23:55:19.648Z,68
2023-03-28T23:58:19.646Z,68
